Time;durP1;ratioP1;P1;durP2;ratioP2;P2;SDS_P1;SDS_P2;PMS_P1;PMS_P2;Temp;Humidity;BMP_temperature;BMP_pressure;BME280_temperature;BME280_humidity;BME280_pressure;Samples;Min_cycle;Max_cycle;Signal;HPM_P1;HPM_P2
2023/01/01 00:00:06;;;;;;;32.13;29.13;;;;;;;21.62;35.09;96437.28;6181244;28;103522;-84
2023/01/01 00:03:09;;;;;;;32.17;29.30;;;;;;;21.63;34.76;96438.06;6167436;28;104919;-82
2023/01/01 00:06:14;;;;;;;31.97;28.97;;;;;;;21.62;34.79;96442.59;6168805;28;103381;-83
2023/01/01 00:12:39;;;;;;;29.30;26.73;;;;;;;21.51;34.93;96430.38;6170927;28;106035;-84
2023/01/01 00:15:42;;;;;;;30.27;27.40;;;;;;;21.36;34.58;96401.09;6176623;28;105425;-83
2023/01/01 00:18:45;;;;;;;28.40;26.00;;;;;;;21.48;34.77;96428.22;6170315;28;103125;-83
2023/01/01 00:21:48;;;;;;;28.77;26.07;;;;;;;21.62;35.13;96452.47;6169711;28;103372;-85
2023/01/01 00:24:52;;;;;;;29.67;26.87;;;;;;;21.36;35.05;96415.19;6170762;28;106263;-84
2023/01/01 00:27:55;;;;;;;27.40;25.00;;;;;;;21.61;34.58;96456.97;6163195;28;105309;-83
2023/01/01 00:30:59;;;;;;;26.60;24.23;;;;;;;21.62;34.47;96468.44;6195124;28;102627;-83
2023/01/01 00:34:02;;;;;;;27.77;25.10;;;;;;;20.77;34.90;96354.47;6186788;28;104756;-83
2023/01/01 00:37:05;;;;;;;29.30;26.70;;;;;;;21.62;34.49;96465.78;6169412;28;102702;-82
2023/01/01 00:40:10;;;;;;;28.33;25.93;;;;;;;21.40;34.79;96437.56;6164548;28;103059;-83
2023/01/01 00:43:14;;;;;;;28.83;26.23;;;;;;;21.58;34.74;96468.19;6161983;28;104427;-82
2023/01/01 00:46:17;;;;;;;27.67;25.10;;;;;;;20.71;34.65;96331.59;6193333;28;103452;-83
2023/01/01 00:49:20;;;;;;;28.57;25.97;;;;;;;21.59;34.55;96461.00;6173430;28;106331;-82
2023/01/01 00:52:23;;;;;;;29.47;26.80;;;;;;;21.58;34.42;96468.19;6182180;28;103829;-82
2023/01/01 00:55:28;;;;;;;28.43;26.03;;;;;;;20.58;34.67;96332.88;6168382;28;102774;-83
2023/01/01 00:58:31;;;;;;;30.13;27.53;;;;;;;21.43;34.43;96465.50;6172817;28;102728;-82
2023/01/01 01:01:34;;;;;;;29.97;27.17;;;;;;;21.45;34.77;96464.19;6158687;28;106488;-82
2023/01/01 01:04:38;;;;;;;29.70;27.23;;;;;;;21.58;34.86;96478.03;6168431;28;103124;-83
2023/01/01 01:07:41;;;;;;;28.80;26.10;;;;;;;21.58;34.40;96470.03;6169534;28;102951;-83
2023/01/01 01:10:46;;;;;;;28.43;25.77;;;;;;;20.93;34.51;96380.00;6184611;28;106559;-83
2023/01/01 01:13:51;;;;;;;29.40;26.80;;;;;;;21.56;34.24;96461.53;6163120;28;104054;-82
2023/01/01 01:16:54;;;;;;;29.90;27.13;;;;;;;21.35;34.50;96429.59;6182179;28;103508;-83
2023/01/01 01:19:58;;;;;;;30.37;27.53;;;;;;;21.57;34.25;96465.78;6183206;28;104210;-82
2023/01/01 01:23:01;;;;;;;30.97;28.30;;;;;;;21.56;34.42;96458.88;6168873;28;103429;-84
2023/01/01 01:26:10;;;;;;;30.67;27.97;;;;;;;21.50;34.49;96442.88;6158301;28;103122;-83
2023/01/01 01:29:13;;;;;;;29.93;27.13;;;;;;;21.44;34.46;96435.94;6178139;28;103575;-84
2023/01/01 01:32:16;;;;;;;30.20;27.50;;;;;;;21.55;34.33;96458.06;6177904;28;104280;-82
2023/01/01 01:35:19;;;;;;;30.30;27.67;;;;;;;21.55;34.19;96458.06;6177949;28;105959;-82
2023/01/01 01:38:23;;;;;;;31.47;28.67;;;;;;;21.44;34.52;96441.28;6172672;28;106510;-83
2023/01/01 01:41:28;;;;;;;30.57;27.60;;;;;;;21.49;34.35;96446.59;6194015;28;105827;-83
2023/01/01 01:44:59;;;;;;;30.50;27.80;;;;;;;21.55;34.46;96463.38;6170496;28;102758;-83
2023/01/01 01:48:03;;;;;;;31.47;28.67;;;;;;;21.55;34.11;96452.75;6124717;28;103241;-82
2023/01/01 01:51:07;;;;;;;29.43;26.80;;;;;;;21.55;34.43;96451.94;6171572;28;103429;-83
2023/01/01 01:54:14;;;;;;;30.27;27.67;;;;;;;21.54;34.24;96451.16;6174203;28;102648;-82
2023/01/01 01:57:19;;;;;;;28.73;26.23;;;;;;;20.48;34.29;96284.19;6169457;28;103064;-83
2023/01/01 02:00:22;;;;;;;29.47;26.87;;;;;;;21.14;34.14;96385.38;6177415;28;102992;-82
2023/01/01 02:03:31;;;;;;;29.27;26.80;;;;;;;21.41;34.50;96438.34;6190120;28;103556;-82
2023/01/01 02:06:38;;;;;;;28.90;26.23;;;;;;;21.56;34.18;96464.19;6149100;28;103089;-81
2023/01/01 02:09:42;;;;;;;29.93;27.30;;;;;;;21.49;34.18;96457.25;6172374;28;106600;-82
2023/01/01 02:12:46;;;;;;;29.80;27.13;;;;;;;21.43;34.05;96454.88;6166106;28;103241;-80
2023/01/01 02:15:54;;;;;;;29.90;27.30;;;;;;;21.12;34.21;96401.59;6165132;28;103727;-80
2023/01/01 02:19:02;;;;;;;28.40;26.00;;;;;;;21.37;33.96;96440.75;6171184;28;103297;-81
2023/01/01 02:22:14;;;;;;;27.50;25.10;;;;;;;21.36;34.18;96439.16;6167295;28;103814;-81
2023/01/01 02:25:28;;;;;;;28.60;26.10;;;;;;;21.55;34.04;96473.25;6170185;28;103846;-80
2023/01/01 02:28:49;;;;;;;28.30;25.90;;;;;;;21.55;34.28;96468.72;6166468;28;106777;-78
2023/01/01 02:31:59;;;;;;;27.30;24.80;;;;;;;21.55;34.19;96478.56;6158021;28;103577;-79
2023/01/01 02:38:30;;;;;;;27.00;24.60;;;;;;;21.42;34.20;96459.38;6173724;28;102840;-79
2023/01/01 02:41:39;;;;;;;26.73;24.40;;;;;;;21.35;34.18;96450.88;6152116;28;104956;-79
2023/01/01 02:44:48;;;;;;;26.03;23.83;;;;;;;21.35;33.90;96437.56;6159634;28;103354;-80
2023/01/01 02:47:51;;;;;;;27.40;25.00;;;;;;;21.06;33.75;96391.22;6164394;28;105483;-78
2023/01/01 02:50:58;;;;;;;26.10;23.90;;;;;;;21.54;34.44;96466.31;6163412;28;103733;-78
2023/01/01 02:54:08;;;;;;;25.27;22.97;;;;;;;21.37;34.41;96440.75;6164681;28;104448;-79
2023/01/01 02:57:20;;;;;;;24.80;22.50;;;;;;;21.54;34.12;96458.34;6156311;28;104150;-79
2023/01/01 03:00:27;;;;;;;24.23;22.03;;;;;;;21.25;34.25;96413.59;6169590;28;103616;-79
2023/01/01 03:03:38;;;;;;;25.17;22.80;;;;;;;21.55;34.19;96454.59;6162212;28;103535;-81
2023/01/01 03:06:50;;;;;;;24.33;22.23;;;;;;;21.55;34.19;96451.94;6153191;28;103390;-79
2023/01/01 03:09:59;;;;;;;24.20;22.10;;;;;;;21.41;33.95;96433.03;6159751;28;104207;-80
2023/01/01 03:13:12;;;;;;;24.77;22.57;;;;;;;21.52;34.35;96455.94;6164063;28;106498;-79
2023/01/01 03:16:23;;;;;;;24.77;22.60;;;;;;;20.39;34.49;96280.50;6165036;28;106333;-80
2023/01/01 03:19:30;;;;;;;26.33;23.93;;;;;;;21.32;33.95;96427.44;6162768;28;104449;-79
2023/01/01 03:22:36;;;;;;;25.17;23.00;;;;;;;20.76;34.13;96342.22;6168827;28;103083;-80
2023/01/01 03:25:46;;;;;;;26.47;24.20;;;;;;;21.33;34.01;96439.66;6171230;28;102593;-78
2023/01/01 03:28:54;;;;;;;27.77;25.07;;;;;;;20.51;33.98;96300.44;6163977;28;103411;-79
2023/01/01 03:32:02;;;;;;;29.30;26.80;;;;;;;21.51;34.43;96452.47;6156023;28;103706;-79
2023/01/01 03:35:06;;;;;;;32.40;29.53;;;;;;;20.96;33.99;96367.22;6163280;28;103731;-79
2023/01/01 03:38:15;;;;;;;32.70;29.90;;;;;;;21.22;34.29;96408.81;6170150;28;107383;-79
2023/01/01 03:41:30;;;;;;;34.90;32.00;;;;;;;21.12;34.04;96406.13;6166988;28;105266;-81
2023/01/01 03:44:38;;;;;;;35.90;32.70;;;;;;;21.50;33.60;96456.19;6166581;28;104145;-78
2023/01/01 03:47:43;;;;;;;36.00;32.90;;;;;;;21.44;33.80;96454.59;6171467;28;103327;-78
2023/01/01 03:50:56;;;;;;;36.80;33.43;;;;;;;21.51;34.07;96467.66;6169669;28;103476;-79
2023/01/01 03:54:08;;;;;;;38.47;35.10;;;;;;;21.22;33.56;96422.13;6162219;28;104436;-78
2023/01/01 03:57:17;;;;;;;37.87;34.67;;;;;;;21.50;34.01;96453.50;6149130;28;102825;-80
2023/01/01 04:00:26;;;;;;;40.50;37.00;;;;;;;21.29;34.03;96438.63;6181108;28;103281;-77
2023/01/01 04:03:37;;;;;;;42.20;38.50;;;;;;;21.51;34.08;96470.31;6172761;28;103455;-78
2023/01/01 04:06:40;;;;;;;40.27;36.77;;;;;;;21.49;33.63;96464.44;6164686;28;105725;-78
2023/01/01 04:09:49;;;;;;;41.67;38.07;;;;;;;21.49;34.01;96462.56;6177540;28;104237;-79
2023/01/01 04:12:55;;;;;;;42.40;38.57;;;;;;;21.47;33.88;96456.72;6179065;28;103076;-79
2023/01/01 04:15:58;;;;;;;43.17;39.37;;;;;;;21.30;33.72;96442.88;6166535;28;103073;-79
2023/01/01 04:19:05;;;;;;;43.47;39.73;;;;;;;21.47;33.82;96462.03;6166951;28;104122;-79
2023/01/01 04:22:08;;;;;;;43.17;39.47;;;;;;;21.07;33.90;96404.28;6156240;28;103175;-79
2023/01/01 04:25:12;;;;;;;41.93;38.13;;;;;;;21.25;33.73;96445.53;6170694;28;105207;-79
2023/01/01 04:28:15;;;;;;;42.97;39.30;;;;;;;21.26;33.55;96443.69;6163319;28;103421;-79
2023/01/01 04:31:19;;;;;;;44.27;40.10;;;;;;;21.43;33.85;96468.19;6169760;28;103053;-79
2023/01/01 04:34:23;;;;;;;44.90;41.07;;;;;;;21.36;33.72;96459.66;6169227;28;104687;-79
2023/01/01 04:37:27;;;;;;;43.20;39.20;;;;;;;21.47;33.95;96483.34;6169571;28;103430;-79
2023/01/01 04:40:30;;;;;;;44.00;40.00;;;;;;;21.46;33.83;96487.09;6162006;28;103079;-78
2023/01/01 04:43:34;;;;;;;44.90;40.90;;;;;;;21.46;33.67;96486.28;6169723;28;103710;-78
2023/01/01 04:46:38;;;;;;;43.70;39.80;;;;;;;21.47;33.48;96486.00;6168763;28;104098;-78
2023/01/01 04:49:42;;;;;;;43.40;39.50;;;;;;;20.44;33.75;96315.06;6169391;28;105621;-79
2023/01/01 04:52:50;;;;;;;42.93;39.13;;;;;;;21.40;33.76;96474.84;6162604;28;103895;-80
2023/01/01 04:55:53;;;;;;;42.20;38.40;;;;;;;21.21;33.83;96444.47;6169563;28;102726;-79
2023/01/01 04:58:57;;;;;;;43.07;39.07;;;;;;;21.46;33.81;96483.63;6169718;28;106145;-79
2023/01/01 05:02:00;;;;;;;41.63;37.93;;;;;;;21.08;33.56;96429.03;6141426;28;106293;-79
2023/01/01 05:05:06;;;;;;;42.50;38.60;;;;;;;21.31;33.55;96455.13;6164051;28;103529;-79
2023/01/01 05:08:09;;;;;;;41.60;38.00;;;;;;;21.45;33.52;96477.50;6169214;28;105130;-80
2023/01/01 05:11:14;;;;;;;43.47;39.70;;;;;;;21.32;33.52;96470.03;6169386;28;106484;-79
2023/01/01 05:14:17;;;;;;;41.50;37.83;;;;;;;21.44;33.28;96483.09;6162102;28;103797;-81
2023/01/01 05:17:20;;;;;;;41.50;37.83;;;;;;;21.44;33.77;96477.75;6168534;28;103800;-80
2023/01/01 05:20:26;;;;;;;42.20;38.50;;;;;;;21.26;33.54;96451.66;6168560;28;102713;-79
2023/01/01 05:23:30;;;;;;;39.90;36.30;;;;;;;21.15;33.46;96442.84;6168593;28;104645;-79
2023/01/01 05:26:34;;;;;;;41.87;38.27;;;;;;;21.44;33.58;96478.56;6162146;28;104342;-79
2023/01/01 05:29:37;;;;;;;41.70;38.00;;;;;;;21.36;33.55;96471.13;6168396;28;103452;-79
2023/01/01 05:32:42;;;;;;;42.30;38.60;;;;;;;21.43;33.16;96482.28;6168934;28;103013;-79
2023/01/01 05:35:53;;;;;;;41.67;37.90;;;;;;;21.44;33.49;96491.09;6168360;28;104814;-81
2023/01/01 05:38:57;;;;;;;42.37;38.57;;;;;;;20.79;33.28;96388.78;6161132;28;105417;-79
2023/01/01 05:42:01;;;;;;;42.17;38.43;;;;;;;21.31;33.21;96479.09;6187767;28;102994;-79
2023/01/01 05:45:04;;;;;;;40.87;37.07;;;;;;;21.30;33.66;96466.03;6168002;28;105727;-79
2023/01/01 05:48:08;;;;;;;41.20;37.30;;;;;;;21.32;33.30;96478.00;6164754;28;105124;-79
2023/01/01 05:51:14;;;;;;;39.70;36.27;;;;;;;21.42;33.45;96499.34;6179822;28;103792;-79
2023/01/01 05:54:17;;;;;;;39.87;36.27;;;;;;;21.41;33.49;96486.28;6167809;28;103424;-80
2023/01/01 05:57:19;;;;;;;39.87;36.37;;;;;;;21.41;33.57;96483.63;6168980;28;102875;-78
2023/01/01 06:00:23;;;;;;;40.03;36.43;;;;;;;21.29;33.41;96475.09;6160533;28;104638;-80
2023/01/01 06:03:26;;;;;;;38.93;35.23;;;;;;;21.10;33.62;96448.19;6170389;28;102742;-79
2023/01/01 06:06:32;;;;;;;40.80;37.13;;;;;;;21.36;33.24;96487.09;6173236;28;106354;-78
2023/01/01 06:09:35;;;;;;;37.70;34.20;;;;;;;21.40;33.38;96501.47;6168194;28;103429;-79
2023/01/01 06:12:39;;;;;;;37.70;34.30;;;;;;;21.34;33.30;96486.56;6160665;28;103507;-78
2023/01/01 06:15:43;;;;;;;40.30;36.80;;;;;;;21.28;33.30;96482.28;6169045;28;105596;-79
2023/01/01 06:18:46;;;;;;;38.10;34.80;;;;;;;21.40;32.87;96493.47;6169988;28;103244;-79
2023/01/01 06:21:51;;;;;;;38.57;35.17;;;;;;;21.33;33.29;96492.91;6170859;28;106504;-79
2023/01/01 06:24:55;;;;;;;38.17;34.80;;;;;;;21.15;33.09;96464.94;6165913;28;103900;-80
2023/01/01 06:27:58;;;;;;;37.07;33.77;;;;;;;21.41;33.18;96503.06;6193203;28;103267;-80
2023/01/01 06:31:02;;;;;;;37.83;34.40;;;;;;;21.43;33.37;96508.94;6179008;28;104575;-79
2023/01/01 06:34:05;;;;;;;38.37;35.07;;;;;;;21.11;32.99;96458.56;6161651;28;103295;-80
2023/01/01 06:37:10;;;;;;;35.67;32.47;;;;;;;21.23;32.83;96482.28;6163015;28;104862;-80
2023/01/01 06:40:13;;;;;;;35.00;32.10;;;;;;;21.44;32.96;96510.53;6167464;28;106471;-79
2023/01/01 06:43:16;;;;;;;35.93;32.63;;;;;;;21.47;32.97;96517.97;6167316;28;105204;-81
2023/01/01 06:46:22;;;;;;;35.40;32.10;;;;;;;21.47;32.89;96533.94;6159124;28;103193;-78
2023/01/01 06:49:25;;;;;;;34.23;31.23;;;;;;;21.48;33.22;96534.75;6167596;28;103277;-81
2023/01/01 06:52:30;;;;;;;31.33;28.50;;;;;;;21.44;33.15;96529.16;6188146;28;103262;-84
2023/01/01 06:55:34;;;;;;;33.43;30.40;;;;;;;21.50;33.37;96541.41;6167409;28;103403;-81
2023/01/01 06:58:37;;;;;;;31.53;28.63;;;;;;;21.43;33.26;96535.56;6159564;28;103211;-82
2023/01/01 07:01:40;;;;;;;30.03;27.43;;;;;;;21.56;33.02;96541.44;6171647;28;104834;-82
2023/01/01 07:04:46;;;;;;;29.87;27.17;;;;;;;21.83;32.60;96549.19;6173425;28;102761;-81
2023/01/01 07:07:51;;;;;;;28.47;25.87;;;;;;;21.95;32.59;96523.06;6166914;28;104421;-81
2023/01/01 07:10:56;;;;;;;30.57;27.80;;;;;;;22.11;32.11;96541.44;6154013;28;103831;-81
2023/01/01 07:13:59;;;;;;;31.07;28.27;;;;;;;21.50;32.21;96428.75;6154795;28;105580;-81
2023/01/01 07:17:02;;;;;;;30.20;27.47;;;;;;;22.22;31.91;96536.91;6173208;28;104382;-80
2023/01/01 07:20:07;;;;;;;31.40;28.70;;;;;;;22.32;32.30;96557.41;6171689;28;103532;-83
2023/01/01 07:23:12;;;;;;;29.67;27.27;;;;;;;22.33;32.24;96551.00;6169216;28;102711;-82
2023/01/01 07:26:15;;;;;;;31.77;28.87;;;;;;;22.14;31.93;96518.78;6164412;28;105470;-82
2023/01/01 07:29:18;;;;;;;31.70;28.90;;;;;;;22.23;32.37;96548.38;6172224;28;102734;-81
2023/01/01 07:32:21;;;;;;;31.87;28.87;;;;;;;21.87;32.31;96510.31;6164216;28;106192;-80
2023/01/01 07:35:25;;;;;;;30.77;27.90;;;;;;;21.90;32.40;96521.22;6170258;28;102758;-79
2023/01/01 07:38:29;;;;;;;36.50;32.93;;;;;;;21.76;31.51;96536.09;6170723;28;103160;-79
2023/01/01 07:41:33;;;;;;;35.63;32.37;;;;;;;21.69;31.95;96530.25;6169269;28;103316;-78
2023/01/01 07:44:36;;;;;;;36.90;33.50;;;;;;;21.77;30.60;96551.03;6165371;28;105375;-78
2023/01/01 07:47:40;;;;;;;37.00;33.70;;;;;;;21.60;30.78;96531.84;6170787;28;105421;-78
2023/01/01 07:50:44;;;;;;;38.80;35.37;;;;;;;21.63;30.56;96545.41;6167882;28;103396;-78
2023/01/01 07:53:48;;;;;;;36.40;33.00;;;;;;;21.66;30.45;96552.88;6165193;28;103339;-80
2023/01/01 07:56:51;;;;;;;37.17;33.77;;;;;;;21.55;30.37;96534.50;6136944;28;102907;-78
2023/01/01 07:59:54;;;;;;;34.70;31.60;;;;;;;21.59;29.74;96548.88;6160010;28;104155;-78
2023/01/01 08:02:59;;;;;;;37.43;33.83;;;;;;;21.59;29.40;96539.03;6168791;28;103633;-79
2023/01/01 08:06:07;;;;;;;37.37;34.10;;;;;;;21.47;29.22;96530.50;6165173;28;103080;-78
2023/01/01 08:09:11;;;;;;;37.10;33.70;;;;;;;21.57;29.09;96549.16;6156715;28;102741;-79
2023/01/01 08:12:15;;;;;;;38.10;34.50;;;;;;;21.55;28.62;96545.16;6159414;28;104059;-87
2023/01/01 08:15:18;;;;;;;35.07;31.97;;;;;;;21.63;28.64;96557.94;6169907;28;102991;-80
2023/01/01 08:18:21;;;;;;;33.80;30.73;;;;;;;21.64;29.60;96559.53;6165449;28;106585;-81
2023/01/01 08:21:24;;;;;;;36.40;33.20;;;;;;;21.37;29.86;96517.19;6167537;28;104168;-80
2023/01/01 08:24:29;;;;;;;32.80;29.70;;;;;;;20.67;29.00;96401.50;6169160;28;107815;-78
2023/01/01 08:27:32;;;;;;;34.37;31.47;;;;;;;21.53;29.45;96532.13;6168903;28;105111;-79
2023/01/01 08:30:35;;;;;;;51.97;47.77;;;;;;;21.80;34.66;96566.47;6162833;28;104278;-81
2023/01/01 08:33:39;;;;;;;42.63;39.13;;;;;;;20.82;31.78;96423.63;6170344;28;103132;-80
2023/01/01 08:36:42;;;;;;;41.27;37.80;;;;;;;21.31;31.99;96513.69;6168784;28;103424;-80
2023/01/01 08:39:49;;;;;;;41.50;37.80;;;;;;;21.33;31.31;96564.81;6168511;28;103819;-80
2023/01/01 08:42:52;;;;;;;38.47;35.17;;;;;;;21.43;30.71;96569.38;6160131;28;103258;-78
2023/01/01 08:45:55;;;;;;;38.70;35.40;;;;;;;21.19;30.73;96526.47;6163974;28;104998;-80
2023/01/01 08:48:58;;;;;;;40.17;36.67;;;;;;;21.48;30.33;96564.84;6168795;28;103352;-81
2023/01/01 08:52:01;;;;;;;37.00;33.60;;;;;;;21.34;30.88;96542.47;6164241;28;103610;-81
2023/01/01 08:55:07;;;;;;;38.60;35.10;;;;;;;21.44;30.87;96562.97;6165777;28;103319;-80
2023/01/01 08:58:10;;;;;;;35.70;32.60;;;;;;;21.42;30.66;96555.25;6168920;28;105555;-80
2023/01/01 09:01:14;;;;;;;35.73;32.57;;;;;;;21.43;31.36;96551.53;6167623;28;106388;-79
2023/01/01 09:04:17;;;;;;;36.47;33.30;;;;;;;21.39;31.73;96536.34;6158625;28;103777;-78
2023/01/01 09:07:20;;;;;;;38.87;35.27;;;;;;;21.50;31.94;96562.72;6167553;28;102793;-78
2023/01/01 09:10:25;;;;;;;37.07;33.97;;;;;;;21.32;32.34;96528.59;6166454;28;106020;-78
2023/01/01 09:13:29;;;;;;;42.47;38.57;;;;;;;21.32;31.27;96517.97;6166497;28;102830;-77
2023/01/01 09:16:32;;;;;;;43.93;39.93;;;;;;;21.47;31.80;96536.63;6158495;28;104419;-80
2023/01/01 09:19:41;;;;;;;43.07;39.30;;;;;;;21.35;31.58;96514.78;6167282;28;102616;-79
2023/01/01 09:22:44;;;;;;;43.40;39.50;;;;;;;21.50;31.18;96528.09;6166747;28;105099;-78
2023/01/01 09:25:49;;;;;;;42.43;38.73;;;;;;;21.44;31.24;96517.72;6164681;28;103822;-82
2023/01/01 09:28:52;;;;;;;44.10;39.87;;;;;;;21.23;31.29;96479.63;6161766;28;105014;-80
2023/01/01 09:31:55;;;;;;;42.87;38.97;;;;;;;21.32;30.72;96477.22;6167867;28;103305;-80
2023/01/01 09:34:59;;;;;;;42.13;38.33;;;;;;;21.60;30.89;96497.22;6166835;28;102632;-80
2023/01/01 09:38:03;;;;;;;42.23;38.37;;;;;;;21.59;30.65;96487.63;6158919;28;104607;-81
2023/01/01 09:41:18;;;;;;;43.07;39.27;;;;;;;21.10;30.72;96392.28;6177048;28;105487;-80
2023/01/01 09:44:39;;;;;;;50.30;45.80;;;;;;;21.83;30.74;96480.69;6192010;28;105115;-80
2023/01/01 09:47:46;;;;;;;59.57;54.17;;;;;;;21.70;30.90;96451.94;6178806;28;102760;-83
2023/01/01 09:50:49;;;;;;;64.87;59.17;;;;;;;21.98;31.19;96488.69;6158720;28;104020;-83
2023/01/01 09:53:58;;;;;;;68.17;62.23;;;;;;;21.83;31.22;96459.38;6163769;28;103586;-82
2023/01/01 09:57:07;;;;;;;68.53;62.60;;;;;;;21.75;31.04;96430.59;6164980;28;103629;-81
2023/01/01 10:00:17;;;;;;;76.33;69.80;;;;;;;22.05;31.16;96467.88;6165242;28;103063;-80
2023/01/01 10:03:35;;;;;;;80.17;73.37;;;;;;;22.20;31.08;96477.72;6160844;28;104010;-80
2023/01/01 10:06:44;;;;;;;85.70;78.50;;;;;;;22.26;30.97;96478.50;6165814;28;103377;-79
2023/01/01 10:09:58;;;;;;;88.50;80.97;;;;;;;22.29;30.98;96478.75;6168265;28;103455;-80
2023/01/01 10:13:10;;;;;;;91.37;83.97;;;;;;;22.31;31.41;96481.13;6159020;28;104923;-80
2023/01/01 10:16:19;;;;;;;87.83;80.57;;;;;;;22.27;31.49;96469.41;6164128;28;103268;-81
2023/01/01 10:19:35;;;;;;;91.30;83.63;;;;;;;22.33;31.08;96473.66;6166742;28;104883;-80
2023/01/01 10:22:44;;;;;;;89.60;81.90;;;;;;;22.35;31.24;96476.88;6161851;28;104556;-80
2023/01/01 10:25:47;;;;;;;90.20;82.60;;;;;;;22.34;31.56;96475.25;6156998;28;103024;-80
2023/01/01 10:29:01;;;;;;;86.97;79.47;;;;;;;22.21;31.61;96449.19;6166537;28;102797;-80
2023/01/01 10:32:14;;;;;;;86.67;79.60;;;;;;;22.31;31.81;96457.13;6166453;28;104010;-80
2023/01/01 10:35:21;;;;;;;83.40;76.37;;;;;;;22.21;31.97;96438.53;6162140;28;103355;-80
2023/01/01 10:38:35;;;;;;;82.20;75.17;;;;;;;22.22;31.50;96440.91;6164154;28;103045;-81
2023/01/01 10:41:38;;;;;;;83.07;76.07;;;;;;;22.38;32.10;96447.00;6168258;28;103284;-80
2023/01/01 10:44:44;;;;;;;79.50;72.70;;;;;;;22.22;31.98;96429.44;6167251;28;103264;-78
2023/01/01 10:48:12;;;;;;;78.10;71.53;;;;;;;22.39;32.35;96451.25;6160661;28;105099;-79
2023/01/01 10:51:19;;;;;;;75.47;69.23;;;;;;;22.37;32.28;96445.41;6158343;28;104718;-79
2023/01/01 10:54:33;;;;;;;72.87;66.80;;;;;;;22.24;32.63;96432.63;6173878;28;105352;-82
2023/01/01 10:57:39;;;;;;;72.83;66.30;;;;;;;22.34;32.69;96433.38;6162815;28;102677;-81
2023/01/01 11:00:57;;;;;;;71.13;65.10;;;;;;;22.34;32.78;96416.56;6163876;28;104102;-81
2023/01/01 11:04:02;;;;;;;70.40;64.17;;;;;;;22.13;32.51;96394.53;6170794;28;104158;-82
2023/01/01 11:07:06;;;;;;;68.47;62.40;;;;;;;22.04;33.27;96366.88;6161469;28;103101;-82
2023/01/01 11:10:19;;;;;;;67.00;61.17;;;;;;;22.03;33.07;96373.28;6168188;28;103270;-81
2023/01/01 11:13:22;;;;;;;65.03;58.83;;;;;;;22.28;33.30;96399.00;6175030;28;102871;-81
2023/01/01 11:16:29;;;;;;;60.93;55.83;;;;;;;22.09;33.31;96383.63;6176095;28;103769;-80
2023/01/01 11:19:35;;;;;;;61.10;55.80;;;;;;;22.33;33.26;96405.13;6173355;28;105455;-82
2023/01/01 11:22:40;;;;;;;61.47;55.97;;;;;;;22.29;33.94;96403.28;6165037;28;103495;-80
2023/01/01 11:25:57;;;;;;;58.60;53.40;;;;;;;22.19;33.71;96380.13;6175269;28;103927;-80
2023/01/01 11:29:05;;;;;;;60.70;54.93;;;;;;;22.42;34.61;96392.81;6165450;28;105513;-78
2023/01/01 11:32:12;;;;;;;56.63;51.43;;;;;;;21.48;35.23;96250.59;6168544;28;104171;-82
2023/01/01 11:35:19;;;;;;;55.17;49.63;;;;;;;22.39;35.87;96385.38;6165301;28;105531;-80
2023/01/01 11:38:24;;;;;;;53.73;48.60;;;;;;;22.39;36.01;96381.91;6166328;28;106273;-78
2023/01/01 11:41:42;;;;;;;53.63;48.63;;;;;;;22.30;35.90;96384.34;6172947;28;104199;-81
2023/01/01 11:44:48;;;;;;;51.80;46.93;;;;;;;22.30;36.55;96379.00;6166577;28;103425;-80
2023/01/01 11:47:58;;;;;;;50.53;45.83;;;;;;;22.15;36.55;96355.06;6172465;28;102592;-80
2023/01/01 11:51:04;;;;;;;49.23;44.67;;;;;;;22.31;37.09;96371.78;6171491;28;105119;-84
2023/01/01 11:54:11;;;;;;;48.13;43.70;;;;;;;22.02;37.20;96329.03;6173540;28;104029;-81
2023/01/01 11:57:18;;;;;;;45.70;41.40;;;;;;;22.29;37.20;96364.06;6166678;28;104766;-81
2023/01/01 12:00:24;;;;;;;54.13;48.77;;;;;;;22.07;37.35;96331.66;6172821;28;103942;-82
2023/01/01 12:03:32;;;;;;;58.00;50.67;;;;;;;22.29;37.54;96356.06;6173304;28;105614;-82
2023/01/01 12:06:41;;;;;;;57.80;51.53;;;;;;;22.31;37.98;96355.78;6163823;28;105308;-81
2023/01/01 12:09:54;;;;;;;58.50;49.87;;;;;;;22.12;37.69;96334.28;6156427;28;103446;-81
2023/01/01 12:13:00;;;;;;;57.23;49.60;;;;;;;22.29;37.90;96357.94;6145005;28;104958;-81
2023/01/01 12:16:11;;;;;;;58.17;50.17;;;;;;;22.15;38.25;96335.59;6164279;28;103587;-81
2023/01/01 12:19:22;;;;;;;61.60;49.10;;;;;;;22.26;38.62;96345.16;6161741;28;105270;-81
2023/01/01 12:22:26;;;;;;;54.07;48.17;;;;;;;22.22;38.61;96338.78;6163539;28;103560;-82
2023/01/01 12:25:36;;;;;;;54.07;46.90;;;;;;;22.28;38.62;96348.34;6168374;28;103058;-81
2023/01/01 12:28:55;;;;;;;53.03;47.20;;;;;;;22.13;39.05;96327.09;6169964;28;105041;-81
2023/01/01 12:32:06;;;;;;;57.90;48.60;;;;;;;22.05;39.19;96313.28;6159741;28;105230;-80
2023/01/01 12:35:20;;;;;;;54.10;48.17;;;;;;;22.27;40.63;96334.22;6169638;28;106370;-81
2023/01/01 12:38:44;;;;;;;55.97;48.00;;;;;;;22.29;40.90;96328.59;6167475;28;103303;-81
2023/01/01 12:41:58;;;;;;;56.33;49.70;;;;;;;21.39;41.92;96206.97;6164200;28;103665;-82
2023/01/01 12:45:26;;;;;;;55.00;49.50;;;;;;;22.23;42.86;96329.72;6168710;28;102890;-83
2023/01/01 12:48:48;;;;;;;55.67;49.97;;;;;;;22.02;44.47;96303.16;6156172;28;103376;-81
2023/01/01 12:52:04;;;;;;;56.03;50.63;;;;;;;22.12;47.09;96323.63;6159188;28;103589;-81
2023/01/01 12:55:46;;;;;;;60.60;54.07;;;;;;;22.29;47.78;96333.94;6157673;28;106265;-78
2023/01/01 12:58:55;;;;;;;58.30;52.10;;;;;;;22.28;47.58;96340.34;6168634;28;104148;-81
2023/01/01 13:02:01;;;;;;;55.37;49.30;;;;;;;21.18;47.29;96173.50;6170117;28;102930;-80
2023/01/01 13:05:15;;;;;;;51.57;46.33;;;;;;;22.25;46.72;96336.38;6160220;28;102930;-81
2023/01/01 13:08:19;;;;;;;49.93;44.70;;;;;;;22.10;46.47;96331.09;6168854;28;103051;-82
2023/01/01 13:11:25;;;;;;;49.73;44.80;;;;;;;22.23;45.25;96335.84;6168574;28;104257;-82
2023/01/01 13:14:38;;;;;;;48.27;43.67;;;;;;;22.11;44.59;96322.84;6164262;28;103501;-82
2023/01/01 13:17:52;;;;;;;51.27;46.07;;;;;;;22.14;44.81;96324.16;6161382;28;104197;-81
2023/01/01 13:20:58;;;;;;;58.43;52.63;;;;;;;22.08;44.16;96302.06;6170607;28;103606;-81
2023/01/01 13:24:18;;;;;;;49.53;44.53;;;;;;;21.84;43.28;96298.44;6171634;28;102761;-82
2023/01/01 13:28:03;;;;;;;37.40;32.63;;;;;;;22.00;42.50;96331.94;6167232;28;103102;-81
2023/01/01 13:31:06;;;;;;;38.23;34.17;;;;;;;21.99;40.93;96333.00;6169645;28;103561;-82
2023/01/01 13:34:52;;;;;;;36.37;32.83;;;;;;;22.03;40.84;96336.75;6166499;28;103984;-83
2023/01/01 13:37:55;;;;;;;34.50;30.80;;;;;;;21.91;41.27;96312.28;6151919;28;106382;-82
2023/01/01 13:41:00;;;;;;;35.20;31.50;;;;;;;21.93;40.34;96318.13;6145970;28;103597;-81
2023/01/01 13:44:22;;;;;;;34.03;30.90;;;;;;;22.03;40.40;96331.41;6143127;28;103573;-81
2023/01/01 13:47:36;;;;;;;32.03;29.00;;;;;;;21.79;40.75;96299.22;6145448;28;104690;-80
2023/01/01 13:50:50;;;;;;;32.70;29.50;;;;;;;21.94;40.89;96310.91;6163670;28;106560;-80
2023/01/01 13:54:12;;;;;;;31.10;27.90;;;;;;;22.09;40.95;96337.50;6164488;28;103094;-80
2023/01/01 13:57:35;;;;;;;32.43;29.00;;;;;;;21.71;40.43;96299.00;6166926;28;103524;-81
2023/01/01 14:00:46;;;;;;;25.90;23.40;;;;;;;21.36;37.93;96268.75;6143858;28;105701;-82
2023/01/01 14:03:55;;;;;;;28.10;25.30;;;;;;;21.68;38.50;96312.88;6140130;28;104575;-80
2023/01/01 14:07:01;;;;;;;26.77;23.00;;;;;;;21.85;38.51;96312.56;6167246;28;107550;-81
2023/01/01 14:10:27;;;;;;;25.40;23.10;;;;;;;21.97;39.43;96324.50;6166462;28;103204;-81
2023/01/01 14:13:40;;;;;;;25.73;23.20;;;;;;;22.11;39.25;96333.50;6162995;28;106498;-81
2023/01/01 14:16:43;;;;;;;25.67;23.10;;;;;;;21.69;39.30;96261.97;6164472;28;103214;-81